Time;durP1;ratioP1;P1;durP2;ratioP2;P2;SDS_P1;SDS_P2;PMS_P1;PMS_P2;Temp;Humidity;BMP_temperature;BMP_pressure;BME280_temperature;BME280_humidity;BME280_pressure;Samples;Min_cycle;Max_cycle;Signal;HPM_P1;HPM_P2
2021/05/26 00:01:42;;;;;;;10.03;6.57;;;;;;;16.36;51.83;100490.88;5098395;28;20477;-52
2021/05/26 00:04:12;;;;;;;9.17;6.20;;;;;;;16.05;52.22;100489.59;5096572;28;20483;-46
2021/05/26 00:06:40;;;;;;;7.83;5.77;;;;;;;15.83;53.13;100490.09;5098343;28;20460;-49
2021/05/26 00:09:07;;;;;;;8.50;6.10;;;;;;;16.09;52.67;100481.84;5094314;28;20550;-51
2021/05/26 00:11:34;;;;;;;8.00;5.20;;;;;;;15.98;52.85;100482.53;5097819;28;20462;-49
2021/05/26 00:14:01;;;;;;;7.30;5.27;;;;;;;15.99;52.70;100479.09;5096636;28;20840;-54
2021/05/26 00:16:30;;;;;;;6.87;4.77;;;;;;;16.19;52.74;100484.59;5097893;28;20877;-48
2021/05/26 00:18:57;;;;;;;6.80;5.07;;;;;;;15.70;53.57;100474.28;5097097;28;20740;-52
2021/05/26 00:21:25;;;;;;;10.63;5.20;;;;;;;16.00;52.67;100473.03;5097464;28;20483;-51
2021/05/26 00:23:53;;;;;;;7.10;5.03;;;;;;;15.89;53.15;100469.38;5097575;28;20499;-53
2021/05/26 00:26:20;;;;;;;9.00;4.97;;;;;;;15.71;53.58;100470.84;5097589;28;20571;-50
2021/05/26 00:28:47;;;;;;;7.67;4.50;;;;;;;15.49;54.34;100459.22;5095332;28;20456;-50
2021/05/26 00:31:20;;;;;;;7.63;5.33;;;;;;;15.75;53.51;100463.97;5096124;28;20555;-50
2021/05/26 00:33:47;;;;;;;6.47;4.40;;;;;;;15.78;53.54;100459.69;5095249;28;20472;-48
2021/05/26 00:36:14;;;;;;;10.50;4.67;;;;;;;15.56;53.86;100445.47;5096208;28;20567;-51
2021/05/26 00:38:41;;;;;;;7.00;4.80;;;;;;;15.90;53.27;100450.31;5097682;28;20551;-51
2021/05/26 00:41:10;;;;;;;7.57;4.80;;;;;;;16.27;52.31;100447.38;5095971;28;20571;-54
2021/05/26 00:43:37;;;;;;;10.60;5.23;;;;;;;16.08;52.56;100454.94;5097525;28;20591;-56
2021/05/26 00:46:04;;;;;;;6.57;4.23;;;;;;;15.98;52.80;100451.31;5096415;28;20472;-51
2021/05/26 00:48:31;;;;;;;7.03;4.60;;;;;;;15.77;53.48;100451.84;5097508;28;20545;-53
2021/05/26 00:50:58;;;;;;;6.70;5.10;;;;;;;15.91;53.32;100452.91;5095804;28;20571;-49
2021/05/26 00:53:28;;;;;;;8.47;5.47;;;;;;;15.86;53.43;100453.72;5097302;28;20937;-49
2021/05/26 00:55:55;;;;;;;8.60;5.60;;;;;;;15.78;53.76;100458.78;5095891;28;20991;-50
2021/05/26 00:58:24;;;;;;;8.80;6.33;;;;;;;16.03;52.77;100457.47;5096919;28;20473;-53
2021/05/26 01:00:51;;;;;;;9.60;6.43;;;;;;;16.16;52.54;100457.66;5094468;28;20567;-50
2021/05/26 01:03:26;;;;;;;8.60;5.93;;;;;;;15.87;53.46;100458.94;5096741;28;20491;-52
2021/05/26 01:05:53;;;;;;;7.43;5.97;;;;;;;15.98;53.29;100453.94;5091216;28;20507;-52
2021/05/26 01:08:21;;;;;;;11.30;7.70;;;;;;;15.93;53.19;100452.97;5097192;28;20466;-48
2021/05/26 01:10:48;;;;;;;11.73;6.23;;;;;;;15.80;53.63;100446.69;5093002;28;20485;-50
2021/05/26 01:13:15;;;;;;;13.30;7.97;;;;;;;16.09;52.89;100448.00;5097075;28;20472;-51
2021/05/26 01:15:43;;;;;;;11.23;7.80;;;;;;;15.58;53.71;100453.28;5095486;28;20477;-48
2021/05/26 01:18:20;;;;;;;10.17;5.77;;;;;;;15.44;54.76;100450.47;5096658;28;20967;-53
2021/05/26 01:20:48;;;;;;;16.40;7.97;;;;;;;15.83;54.48;100453.69;5092777;28;20553;-53
2021/05/26 01:23:17;;;;;;;15.40;8.73;;;;;;;15.93;53.78;100451.25;5096746;28;20497;-51
2021/05/26 01:25:46;;;;;;;14.93;8.57;;;;;;;16.22;52.91;100441.22;5095337;28;20979;-49
2021/05/26 01:28:14;;;;;;;11.30;8.03;;;;;;;16.07;53.09;100432.38;5096716;28;20457;-49
2021/05/26 01:30:41;;;;;;;12.40;8.37;;;;;;;16.21;52.53;100435.16;5094961;28;20484;-50
2021/05/26 01:33:08;;;;;;;10.27;7.37;;;;;;;16.04;53.18;100433.19;5094267;28;20776;-49
2021/05/26 01:35:38;;;;;;;11.27;8.40;;;;;;;16.25;52.77;100438.69;5094855;28;20943;-48
2021/05/26 01:38:05;;;;;;;11.43;8.90;;;;;;;16.39;52.63;100431.03;5096514;28;20476;-52
2021/05/26 01:40:34;;;;;;;13.10;7.80;;;;;;;15.85;53.61;100439.81;5094843;28;20473;-46
2021/05/26 01:43:01;;;;;;;10.67;7.80;;;;;;;15.98;53.59;100430.50;5096357;28;20475;-53
2021/05/26 01:45:28;;;;;;;11.67;7.70;;;;;;;16.05;53.30;100424.53;5092338;28;20828;-51
2021/05/26 01:47:55;;;;;;;11.90;8.40;;;;;;;15.55;54.50;100433.31;5096273;28;20460;-47
2021/05/26 01:50:22;;;;;;;13.00;8.33;;;;;;;15.42;55.57;100437.41;5094584;28;20948;-49
2021/05/26 01:52:52;;;;;;;13.60;9.20;;;;;;;16.05;53.98;100431.50;5096280;28;20536;-47
2021/05/26 01:55:19;;;;;;;12.60;8.50;;;;;;;16.15;53.71;100429.88;5094845;28;20483;-52
2021/05/26 01:57:48;;;;;;;20.20;10.10;;;;;;;15.92;54.33;100433.03;5092942;28;20966;-53
2021/05/26 02:00:17;;;;;;;14.80;10.80;;;;;;;15.89;54.46;100427.75;5094245;28;20572;-54
2021/05/26 02:02:44;;;;;;;18.70;10.90;;;;;;;15.39;55.43;100419.19;5095880;28;20456;-48
2021/05/26 02:05:12;;;;;;;16.37;11.40;;;;;;;15.73;54.76;100417.13;5094844;28;20495;-51
2021/05/26 02:07:40;;;;;;;16.57;11.20;;;;;;;15.98;54.73;100416.63;5095792;28;20942;-53
2021/05/26 02:10:09;;;;;;;18.80;12.33;;;;;;;16.05;54.12;100414.13;5091559;28;20565;-49
2021/05/26 02:12:36;;;;;;;19.97;10.97;;;;;;;15.93;54.03;100416.56;5095477;28;20495;-50
2021/05/26 02:15:07;;;;;;;16.40;10.43;;;;;;;15.98;54.33;100412.31;5094550;28;20930;-49
2021/05/26 02:17:34;;;;;;;17.83;12.30;;;;;;;15.84;54.50;100413.81;5095556;28;20483;-50
2021/05/26 02:20:01;;;;;;;15.67;10.13;;;;;;;15.70;54.99;100417.09;5094336;28;20767;-47
2021/05/26 02:22:28;;;;;;;17.47;11.97;;;;;;;16.11;53.73;100415.97;5092696;28;20467;-48
2021/05/26 02:24:55;;;;;;;17.80;12.80;;;;;;;16.20;53.56;100405.66;5093938;28;20484;-51
2021/05/26 02:27:22;;;;;;;18.63;11.97;;;;;;;16.06;54.06;100408.06;5095751;28;20454;-51
2021/05/26 02:29:49;;;;;;;16.43;11.07;;;;;;;15.96;54.00;100402.72;5094253;28;20483;-51
2021/05/26 02:32:17;;;;;;;19.03;11.70;;;;;;;15.97;53.96;100410.56;5095229;28;20460;-51
2021/05/26 02:34:44;;;;;;;18.57;12.40;;;;;;;16.05;53.94;100408.94;5093954;28;20476;-54
2021/05/26 02:37:12;;;;;;;20.13;12.13;;;;;;;16.15;53.43;100412.53;5095349;28;20530;-53
2021/05/26 02:39:39;;;;;;;22.63;14.20;;;;;;;16.37;52.85;100404.13;5094000;28;20481;-53
2021/05/26 02:42:06;;;;;;;19.20;12.70;;;;;;;16.20;53.41;100402.16;5095045;28;20549;-53
2021/05/26 02:44:33;;;;;;;23.07;14.10;;;;;;;15.83;54.68;100406.88;5093974;28;20480;-51
2021/05/26 02:47:00;;;;;;;20.00;13.47;;;;;;;16.11;53.92;100404.66;5095485;28;20749;-48
2021/05/26 02:49:28;;;;;;;23.00;14.17;;;;;;;16.03;54.12;100395.03;5094003;28;20509;-49
2021/05/26 02:51:55;;;;;;;21.63;12.33;;;;;;;16.19;52.95;100406.50;5094679;28;20457;-52
2021/05/26 02:54:22;;;;;;;21.77;13.57;;;;;;;16.28;53.49;100397.94;5093661;28;20482;-51
2021/05/26 02:56:49;;;;;;;21.60;13.20;;;;;;;16.26;53.83;100402.25;5092692;28;20457;-48
2021/05/26 02:59:16;;;;;;;22.90;13.47;;;;;;;16.01;53.83;100407.13;5093728;28;20524;-52
2021/05/26 03:01:44;;;;;;;21.90;13.17;;;;;;;16.34;53.07;100397.16;5094605;28;20456;-48
2021/05/26 03:04:11;;;;;;;20.70;13.20;;;;;;;16.48;52.36;100392.13;5093743;28;20487;-48
2021/05/26 03:06:39;;;;;;;21.90;11.20;;;;;;;16.46;52.88;100394.69;5094539;28;20463;-52
2021/05/26 03:09:06;;;;;;;21.97;12.63;;;;;;;16.54;52.38;100394.78;5093598;28;20454;-50
2021/05/26 03:11:33;;;;;;;26.70;14.77;;;;;;;16.11;53.60;100399.47;5094452;28;20460;-53
2021/05/26 03:14:00;;;;;;;20.00;13.37;;;;;;;16.21;53.39;100398.75;5093513;28;20562;-49
2021/05/26 03:16:28;;;;;;;24.77;14.40;;;;;;;16.40;53.37;100396.38;5091858;28;20477;-53
2021/05/26 03:18:55;;;;;;;16.20;10.87;;;;;;;16.46;52.49;100393.84;5093307;28;20480;-51
2021/05/26 03:21:22;;;;;;;19.60;12.50;;;;;;;16.56;52.63;100395.66;5094057;28;20486;-53
2021/05/26 03:23:50;;;;;;;17.50;12.00;;;;;;;16.47;52.64;100392.97;5093796;28;20516;-47
2021/05/26 03:26:17;;;;;;;21.47;11.90;;;;;;;16.28;52.96;100397.94;5097414;28;20484;-48
2021/05/26 03:28:44;;;;;;;16.60;10.17;;;;;;;15.87;53.60;100393.91;5098642;28;20479;-54
2021/05/26 03:31:11;;;;;;;17.43;10.10;;;;;;;16.14;52.71;100386.47;5097135;28;20586;-49
2021/05/26 03:33:39;;;;;;;17.00;10.30;;;;;;;16.16;52.77;100385.63;5098410;28;20474;-54
2021/05/26 03:36:08;;;;;;;14.60;9.17;;;;;;;16.04;53.25;100388.97;5096959;28;20464;-49
2021/05/26 03:38:35;;;;;;;12.63;8.40;;;;;;;16.26;52.70;100391.84;5098585;28;20499;-50
2021/05/26 03:41:03;;;;;;;14.90;9.70;;;;;;;16.36;52.88;100386.75;5097436;28;20476;-50
2021/05/26 03:43:30;;;;;;;18.90;10.33;;;;;;;16.21;53.02;100385.72;5095924;28;20480;-51
2021/05/26 03:45:57;;;;;;;14.63;8.10;;;;;;;15.80;54.32;100382.53;5097356;28;20507;-52
2021/05/26 03:48:24;;;;;;;15.67;9.70;;;;;;;16.10;53.54;100382.09;5098222;28;20762;-49
2021/05/26 03:50:51;;;;;;;16.73;9.77;;;;;;;15.78;54.11;100379.06;5094844;28;20840;-51
2021/05/26 03:53:18;;;;;;;11.10;7.67;;;;;;;15.78;54.16;100384.25;5098099;28;20938;-49
2021/05/26 03:55:45;;;;;;;12.60;7.17;;;;;;;15.52;54.95;100382.13;5097171;28;20471;-49
2021/05/26 03:58:15;;;;;;;13.77;8.90;;;;;;;15.85;53.88;100384.34;5097970;28;20490;-51
2021/05/26 04:00:42;;;;;;;14.37;9.90;;;;;;;16.09;53.17;100378.63;5096455;28;20476;-51
2021/05/26 04:03:09;;;;;;;15.57;10.23;;;;;;;16.51;52.34;100383.47;5095392;28;20477;-49
2021/05/26 04:05:36;;;;;;;21.63;10.20;;;;;;;16.41;52.22;100380.75;5096670;28;20480;-54
2021/05/26 04:08:04;;;;;;;16.67;10.63;;;;;;;16.40;52.33;100380.75;5097288;28;20489;-50
2021/05/26 04:10:31;;;;;;;15.53;8.47;;;;;;;16.14;53.08;100376.06;5096452;28;20481;-50
2021/05/26 04:12:58;;;;;;;13.67;7.73;;;;;;;16.04;52.98;100380.28;5097891;28;20984;-48
2021/05/26 04:15:26;;;;;;;14.53;8.50;;;;;;;16.01;53.49;100373.31;5096506;28;20470;-47
2021/05/26 04:17:53;;;;;;;16.47;8.90;;;;;;;16.07;52.91;100362.13;5097731;28;20486;-56
2021/05/26 04:20:20;;;;;;;13.17;9.00;;;;;;;16.21;52.61;100372.72;5096171;28;20487;-51
2021/05/26 04:22:47;;;;;;;15.57;9.57;;;;;;;16.36;52.30;100365.94;5097157;28;20940;-55
2021/05/26 04:25:15;;;;;;;19.90;9.07;;;;;;;16.15;52.72;100370.03;5096360;28;20477;-54
2021/05/26 04:27:42;;;;;;;20.80;9.33;;;;;;;16.17;52.77;100360.50;5097447;28;20457;-49
2021/05/26 04:30:10;;;;;;;13.03;8.93;;;;;;;16.01;53.20;100365.50;5093017;28;20477;-48
2021/05/26 04:32:38;;;;;;;15.10;8.63;;;;;;;16.32;52.30;100365.88;5097424;28;20458;-52
2021/05/26 04:35:06;;;;;;;13.33;8.90;;;;;;;16.27;52.05;100362.38;5095772;28;20907;-50
2021/05/26 04:37:33;;;;;;;15.60;8.33;;;;;;;16.29;51.79;100365.84;5097241;28;20460;-52
2021/05/26 04:40:00;;;;;;;13.50;6.87;;;;;;;15.92;52.93;100357.59;5095744;28;20937;-46
2021/05/26 04:42:27;;;;;;;13.47;6.33;;;;;;;15.55;53.37;100359.63;5096644;28;20469;-53
2021/05/26 04:44:54;;;;;;;7.60;4.37;;;;;;;15.73;52.86;100362.50;5096093;28;20583;-49
2021/05/26 04:47:22;;;;;;;9.00;5.03;;;;;;;15.51;53.15;100372.59;5097392;28;20454;-48
2021/05/26 04:49:50;;;;;;;7.80;5.43;;;;;;;15.74;52.63;100366.00;5093043;28;20488;-49
2021/05/26 04:52:17;;;;;;;14.20;7.00;;;;;;;15.55;52.76;100364.84;5096647;28;20465;-49
2021/05/26 04:54:44;;;;;;;13.73;8.47;;;;;;;15.40;52.57;100376.75;5095317;28;20557;-53
2021/05/26 04:57:11;;;;;;;12.07;6.83;;;;;;;15.80;51.80;100366.94;5097427;28;20452;-48
2021/05/26 04:59:38;;;;;;;12.67;6.87;;;;;;;15.75;51.95;100358.19;5095690;28;20553;-46
2021/05/26 05:02:05;;;;;;;11.53;5.70;;;;;;;15.76;51.56;100364.28;5096306;28;20976;-48
2021/05/26 05:04:32;;;;;;;7.87;5.80;;;;;;;15.46;52.51;100365.56;5095396;28;20509;-45
2021/05/26 05:07:00;;;;;;;13.07;7.30;;;;;;;15.87;51.51;100357.50;5096831;28;20460;-45
2021/05/26 05:09:27;;;;;;;17.40;6.63;;;;;;;15.71;51.68;100361.63;5095293;28;20556;-48
2021/05/26 05:11:54;;;;;;;10.73;6.67;;;;;;;16.08;50.83;100355.16;5096429;28;21029;-51
2021/05/26 05:14:21;;;;;;;11.70;7.20;;;;;;;16.35;50.89;100361.59;5095349;28;20481;-49
2021/05/26 05:16:49;;;;;;;12.00;7.07;;;;;;;16.23;50.36;100355.38;5096572;28;20511;-51
2021/05/26 05:19:16;;;;;;;20.73;9.70;;;;;;;16.57;50.12;100352.28;5095145;28;20473;-49
2021/05/26 05:21:43;;;;;;;12.33;6.50;;;;;;;16.01;51.37;100354.22;5096006;28;20550;-49
2021/05/26 05:24:11;;;;;;;18.40;8.53;;;;;;;15.93;51.23;100352.41;5092231;28;20506;-49
2021/05/26 05:26:38;;;;;;;12.57;7.70;;;;;;;16.32;50.56;100358.06;5096672;28;20458;-52
2021/05/26 05:29:05;;;;;;;16.10;7.10;;;;;;;16.57;49.87;100358.34;5095241;28;20454;-48
2021/05/26 05:31:32;;;;;;;7.63;3.97;;;;;;;15.79;50.93;100362.59;5096076;28;20484;-45
2021/05/26 05:33:59;;;;;;;12.90;7.60;;;;;;;16.40;50.86;100355.56;5094965;28;20481;-49
2021/05/26 05:36:26;;;;;;;8.87;5.47;;;;;;;15.89;50.14;100347.97;5096001;28;20478;-49
2021/05/26 05:38:53;;;;;;;8.80;5.00;;;;;;;15.87;50.84;100344.50;5094849;28;20984;-56
2021/05/26 05:41:22;;;;;;;9.30;5.37;;;;;;;16.08;50.72;100339.56;5095847;28;20481;-52
2021/05/26 05:43:49;;;;;;;11.53;5.40;;;;;;;15.98;50.40;100334.25;5095999;28;20473;-52
2021/05/26 05:46:17;;;;;;;8.40;5.30;;;;;;;15.74;51.29;100351.25;5093806;28;21005;-47
2021/05/26 05:48:44;;;;;;;11.40;7.53;;;;;;;16.54;49.91;100339.22;5095812;28;20763;-55
2021/05/26 05:51:11;;;;;;;5.73;3.90;;;;;;;15.64;50.43;100339.84;5094272;28;20577;-52
2021/05/26 05:53:38;;;;;;;11.40;6.70;;;;;;;16.05;50.25;100338.66;5095899;28;20488;-48
2021/05/26 05:56:06;;;;;;;6.30;3.50;;;;;;;15.74;50.52;100340.84;5094066;28;20575;-52
2021/05/26 05:58:34;;;;;;;10.40;6.20;;;;;;;16.27;49.86;100346.75;5095761;28;20484;-47
2021/05/26 06:01:01;;;;;;;7.67;4.90;;;;;;;16.59;48.74;100335.81;5094120;28;20470;-47
2021/05/26 06:03:28;;;;;;;6.77;4.63;;;;;;;16.29;49.25;100334.63;5095208;28;20572;-49
2021/05/26 06:05:55;;;;;;;9.43;4.37;;;;;;;16.03;50.09;100332.59;5094093;28;20481;-48
2021/05/26 06:08:22;;;;;;;9.63;5.57;;;;;;;16.18;49.49;100337.09;5095728;28;20541;-52
2021/05/26 06:10:49;;;;;;;11.13;5.43;;;;;;;16.43;48.96;100331.28;5093235;28;20466;-50
2021/05/26 06:13:16;;;;;;;10.10;5.17;;;;;;;16.03;49.63;100322.19;5095465;28;20584;-52
2021/05/26 06:15:44;;;;;;;9.00;5.47;;;;;;;16.60;48.39;100327.16;5093926;28;20474;-53
2021/05/26 06:18:11;;;;;;;11.43;6.33;;;;;;;16.82;48.00;100319.53;5092623;28;20484;-51
2021/05/26 06:20:38;;;;;;;12.70;6.30;;;;;;;17.09;46.83;100318.06;5093799;28;20576;-50
2021/05/26 06:23:06;;;;;;;10.10;4.80;;;;;;;16.40;48.40;100331.28;5095153;28;20495;-49
2021/05/26 06:25:33;;;;;;;10.17;5.47;;;;;;;16.40;48.96;100320.88;5094203;28;20481;-48
2021/05/26 06:28:00;;;;;;;8.50;4.80;;;;;;;16.43;48.52;100326.97;5095211;28;20468;-55
2021/05/26 06:30:27;;;;;;;14.80;4.57;;;;;;;16.52;48.02;100314.91;5094059;28;20492;-51
2021/05/26 06:32:55;;;;;;;8.33;5.23;;;;;;;16.56;47.86;100320.16;5095327;28;20489;-51
2021/05/26 06:35:22;;;;;;;11.53;6.13;;;;;;;16.79;48.16;100308.19;5094540;28;20482;-48
2021/05/26 06:37:50;;;;;;;10.10;5.83;;;;;;;16.80;47.48;100305.63;5095604;28;20462;-52
2021/05/26 06:40:17;;;;;;;8.00;5.70;;;;;;;16.83;47.99;100310.84;5093704;28;20513;-48
2021/05/26 06:42:44;;;;;;;12.27;8.10;;;;;;;16.88;47.60;100308.31;5095361;28;20935;-49
2021/05/26 06:45:13;;;;;;;10.33;7.13;;;;;;;17.13;46.96;100306.78;5094129;28;20504;-51
2021/05/26 06:47:40;;;;;;;18.10;7.33;;;;;;;16.82;47.74;100305.66;5095148;28;20458;-49
2021/05/26 06:50:09;;;;;;;8.80;6.60;;;;;;;16.82;47.90;100309.09;5093879;28;20477;-46
2021/05/26 06:52:37;;;;;;;11.23;5.93;;;;;;;16.74;49.08;100305.56;5094902;28;20833;-52
2021/05/26 06:55:06;;;;;;;20.87;12.63;;;;;;;17.25;47.96;100302.53;5094167;28;20474;-51
2021/05/26 06:57:33;;;;;;;6.87;4.70;;;;;;;16.88;48.30;100300.50;5094484;28;20842;-48
2021/05/26 07:00:01;;;;;;;12.30;5.50;;;;;;;17.18;47.85;100298.13;5093783;28;20538;-47
2021/05/26 07:02:28;;;;;;;10.47;6.70;;;;;;;16.86;48.41;100291.75;5094722;28;20548;-48
2021/05/26 07:04:55;;;;;;;25.47;7.97;;;;;;;17.17;48.11;100299.84;5094028;28;20484;-54
2021/05/26 07:07:23;;;;;;;14.67;8.97;;;;;;;17.76;46.80;100288.91;5095023;28;20462;-48
2021/05/26 07:09:50;;;;;;;11.00;7.03;;;;;;;17.41;46.99;100291.34;5093997;28;20474;-46
2021/05/26 07:12:18;;;;;;;16.20;9.07;;;;;;;17.44;48.15;100295.72;5094505;28;20514;-48
2021/05/26 07:14:46;;;;;;;9.10;5.20;;;;;;;17.34;47.89;100302.56;5094098;28;20488;-50
2021/05/26 07:17:13;;;;;;;9.20;6.00;;;;;;;17.33;47.43;100287.78;5095308;28;20464;-49
2021/05/26 07:19:43;;;;;;;14.60;8.20;;;;;;;17.59;46.91;100287.06;5093841;28;20488;-48
2021/05/26 07:22:11;;;;;;;8.00;4.33;;;;;;;17.13;47.58;100296.34;5094627;28;20553;-51
2021/05/26 07:24:38;;;;;;;16.30;7.53;;;;;;;17.53;47.29;100281.81;5093422;28;20477;-50
2021/05/26 07:27:06;;;;;;;11.50;5.60;;;;;;;17.11;47.98;100290.28;5094820;28;20950;-51
2021/05/26 07:29:33;;;;;;;7.77;4.13;;;;;;;17.63;46.75;100288.84;5093217;28;20470;-48
2021/05/26 07:32:00;;;;;;;19.47;10.47;;;;;;;17.81;46.53;100297.63;5094327;28;20545;-48
2021/05/26 07:34:27;;;;;;;9.63;3.90;;;;;;;18.37;45.34;100282.19;5093435;28;20469;-56
2021/05/26 07:36:54;;;;;;;5.73;3.50;;;;;;;18.20;46.21;100280.41;5094844;28;20464;-50
2021/05/26 07:39:22;;;;;;;12.03;4.67;;;;;;;17.91;44.75;100289.00;5093539;28;20783;-51
2021/05/26 07:41:50;;;;;;;12.07;5.47;;;;;;;17.77;45.93;100285.44;5094556;28;20450;-50
2021/05/26 07:44:17;;;;;;;6.93;3.53;;;;;;;17.71;46.12;100280.19;5093590;28;20615;-51
2021/05/26 07:46:44;;;;;;;6.70;3.40;;;;;;;17.57;46.40;100278.38;5094655;28;20457;-53
2021/05/26 07:49:11;;;;;;;25.03;9.10;;;;;;;17.44;46.78;100293.09;5093650;28;20771;-52
2021/05/26 07:51:44;;;;;;;14.50;7.20;;;;;;;17.23;48.51;100293.84;5094486;28;20464;-48
2021/05/26 07:54:11;;;;;;;24.80;8.33;;;;;;;17.11;51.24;100290.28;5093511;28;20564;-51
2021/05/26 07:56:39;;;;;;;6.47;3.77;;;;;;;16.50;53.23;100294.03;5094339;28;20915;-49
2021/05/26 07:59:07;;;;;;;14.53;6.23;;;;;;;16.79;52.57;100301.28;5093717;28;20870;-48
2021/05/26 08:01:34;;;;;;;18.73;9.77;;;;;;;17.01;52.07;100293.63;5093893;28;20966;-51
2021/05/26 08:04:01;;;;;;;11.37;4.90;;;;;;;16.36;53.30;100298.25;5093411;28;20480;-50
2021/05/26 08:06:28;;;;;;;14.67;7.57;;;;;;;16.49;53.09;100300.13;5094110;28;20485;-52
2021/05/26 08:08:55;;;;;;;11.20;7.10;;;;;;;16.63;53.74;100291.56;5093520;28;20484;-46
2021/05/26 08:11:22;;;;;;;15.63;8.67;;;;;;;16.63;54.26;100295.06;5093065;28;20484;-51
2021/05/26 08:13:49;;;;;;;37.23;14.20;;;;;;;17.06;52.87;100293.69;5084444;28;20493;-52
2021/05/26 08:16:18;;;;;;;9.80;6.40;;;;;;;16.73;52.51;100285.59;5096625;28;20485;-49
2021/05/26 08:18:45;;;;;;;8.83;5.33;;;;;;;16.77;52.89;100282.13;5097491;28;20982;-46
2021/05/26 08:21:12;;;;;;;39.43;13.60;;;;;;;16.42;52.62;100282.69;5096290;28;20477;-51
2021/05/26 08:23:39;;;;;;;9.57;4.63;;;;;;;16.70;53.09;100283.81;5097957;28;20489;-50
2021/05/26 08:26:11;;;;;;;17.97;7.10;;;;;;;16.82;53.51;100288.25;5096598;28;20556;-52
2021/05/26 08:28:38;;;;;;;15.97;7.97;;;;;;;16.68;54.18;100289.88;5097945;28;20624;-49
2021/05/26 08:31:05;;;;;;;10.63;6.40;;;;;;;16.22;56.21;100283.38;5096184;28;20478;-52
2021/05/26 08:33:33;;;;;;;21.37;7.70;;;;;;;16.14;55.64;100277.19;5097743;28;20487;-48
2021/05/26 08:36:00;;;;;;;52.57;16.83;;;;;;;16.29;55.77;100277.38;5096779;28;20854;-46
2021/05/26 08:38:27;;;;;;;50.97;19.40;;;;;;;17.01;54.13;100278.00;5097390;28;20457;-48
2021/05/26 08:40:55;;;;;;;19.80;12.47;;;;;;;17.57;53.68;100273.16;5115384;27;20485;-51
2021/05/26 08:43:24;;;;;;;37.77;16.67;;;;;;;17.59;52.98;100268.81;5107192;28;20496;-49
2021/05/26 08:45:51;;;;;;;20.77;14.40;;;;;;;18.02;52.75;100262.91;5096626;28;20926;-49
2021/05/26 08:48:20;;;;;;;19.67;11.50;;;;;;;17.93;53.34;100261.16;5096406;28;20836;-56
2021/05/26 08:50:50;;;;;;;28.27;17.57;;;;;;;17.40;54.92;100260.03;5095004;28;20466;-52
2021/05/26 08:53:18;;;;;;;83.00;26.00;;;;;;;17.07;53.49;100265.03;5097278;28;20568;-54
2021/05/26 08:55:45;;;;;;;23.70;15.80;;;;;;;17.45;53.09;100258.34;5094998;28;20501;-53
2021/05/26 08:58:13;;;;;;;21.80;13.80;;;;;;;17.58;52.88;100248.81;5096969;28;20460;-55
2021/05/26 09:00:40;;;;;;;22.67;13.07;;;;;;;16.69;53.08;100255.16;5094897;28;20812;-54
2021/05/26 09:03:07;;;;;;;23.80;17.03;;;;;;;17.60;53.61;100247.13;5096478;28;21007;-51
2021/05/26 09:05:34;;;;;;;24.30;15.20;;;;;;;17.61;53.13;100259.28;5095639;28;20462;-54
2021/05/26 09:08:17;;;;;;;30.13;19.83;;;;;;;17.73;52.67;100242.81;5097016;28;20867;-50
2021/05/26 09:10:48;;;;;;;28.23;15.50;;;;;;;17.90;52.34;100239.41;5094352;28;20604;-56
2021/05/26 09:13:29;;;;;;;21.73;11.70;;;;;;;17.31;52.57;100249.53;5096380;28;20549;-51
2021/05/26 09:15:57;;;;;;;33.63;19.80;;;;;;;17.81;52.02;100250.66;5093273;28;21082;-55
2021/05/26 09:18:25;;;;;;;23.80;15.43;;;;;;;17.99;52.81;100254.22;5096321;28;20967;-50
2021/05/26 09:20:53;;;;;;;22.43;11.33;;;;;;;17.50;52.02;100247.91;5093987;28;20509;-51
2021/05/26 09:23:28;;;;;;;27.87;16.63;;;;;;;18.01;50.95;100236.81;5096157;28;20493;-52
2021/05/26 09:25:57;;;;;;;17.80;9.87;;;;;;;17.79;49.43;100248.03;5092969;28;20481;-51
2021/05/26 09:28:27;;;;;;;21.67;14.20;;;;;;;18.41;49.47;100236.91;5096278;28;20523;-54
2021/05/26 09:31:01;;;;;;;16.83;9.27;;;;;;;18.08;49.61;100239.47;5097073;28;20523;-53
2021/05/26 09:33:32;;;;;;;10.73;6.30;;;;;;;18.10;48.96;100231.63;5093208;28;20476;-50
2021/05/26 09:36:10;;;;;;;22.93;11.37;;;;;;;18.59;49.57;100235.19;5094788;28;20892;-50
2021/05/26 09:38:38;;;;;;;16.40;9.03;;;;;;;18.28;49.92;100236.03;5094518;28;20493;-50
2021/05/26 09:41:10;;;;;;;19.37;9.03;;;;;;;17.72;50.44;100229.75;5094294;28;20509;-49
2021/05/26 09:43:45;;;;;;;17.47;8.90;;;;;;;18.15;48.70;100227.28;5095917;28;20565;-48
2021/05/26 09:46:27;;;;;;;17.57;9.83;;;;;;;18.42;48.09;100225.63;5093710;28;20866;-52
2021/05/26 09:49:05;;;;;;;16.93;9.23;;;;;;;18.74;47.28;100223.88;5092939;28;20441;-51
2021/05/26 09:51:34;;;;;;;15.50;7.27;;;;;;;18.43;46.08;100219.53;5093363;28;20606;-54
2021/05/26 09:54:11;;;;;;;53.57;17.50;;;;;;;18.40;46.78;100229.94;5094684;28;20557;-55
2021/05/26 09:56:39;;;;;;;14.83;7.10;;;;;;;18.30;46.48;100220.38;5094060;28;20454;-53
2021/05/26 09:59:07;;;;;;;25.50;12.00;;;;;;;19.23;46.13;100222.94;5094470;28;20837;-56
2021/05/26 10:01:35;;;;;;;63.57;20.43;;;;;;;18.91;46.25;100221.22;5095083;28;20996;-55
2021/05/26 10:04:03;;;;;;;32.23;13.60;;;;;;;19.06;46.27;100229.97;5094339;28;20523;-50
2021/05/26 10:06:31;;;;;;;20.33;7.50;;;;;;;18.16;46.13;100239.47;5092709;28;20486;-53
2021/05/26 10:08:59;;;;;;;12.17;5.27;;;;;;;17.67;47.66;100228.00;5094042;28;20545;-51
2021/05/26 10:11:32;;;;;;;9.90;4.90;;;;;;;17.48;48.81;100240.09;5094923;28;20569;-53
2021/05/26 10:14:03;;;;;;;14.57;5.00;;;;;;;17.74;49.62;100228.03;5093689;28;20938;-54
2021/05/26 10:16:32;;;;;;;18.70;5.80;;;;;;;17.97;48.16;100238.53;5092581;28;20478;-54
2021/05/26 10:19:02;;;;;;;25.67;9.27;;;;;;;18.37;48.13;100229.97;5094061;28;20449;-53
2021/05/26 10:21:31;;;;;;;16.93;7.53;;;;;;;18.62;46.96;100228.22;5091973;28;20580;-55
2021/05/26 10:23:59;;;;;;;14.00;6.90;;;;;;;18.65;46.62;100231.72;5093299;28;20581;-45
2021/05/26 10:26:56;;;;;;;12.80;6.90;;;;;;;18.80;46.02;100223.88;5095108;28;21258;-52
2021/05/26 10:29:39;;;;;;;8.43;5.30;;;;;;;18.19;46.89;100229.06;5093195;28;20471;-53
2021/05/26 10:32:08;;;;;;;14.80;7.00;;;;;;;18.42;46.64;100232.56;5094006;28;20895;-55
2021/05/26 10:35:07;;;;;;;29.47;9.13;;;;;;;18.55;46.86;100213.41;5093481;28;20557;-56
2021/05/26 10:37:40;;;;;;;12.27;4.53;;;;;;;18.00;46.93;100240.28;5093232;28;20545;-53
2021/05/26 10:40:34;;;;;;;6.80;3.33;;;;;;;17.93;45.74;100211.56;5093278;28;20585;-50
2021/05/26 10:43:33;;;;;;;15.43;6.27;;;;;;;17.70;45.87;100216.72;5093413;28;20532;-56
2021/05/26 10:46:02;;;;;;;13.87;6.90;;;;;;;17.91;50.31;100222.88;5092379;28;20477;-52
2021/05/26 10:48:57;;;;;;;8.57;4.20;;;;;;;17.37;52.36;100250.47;5091806;28;20453;-52
2021/05/26 10:52:03;;;;;;;9.67;5.80;;;;;;;17.30;54.15;100268.66;5089973;28;20553;-52
2021/05/26 10:55:06;;;;;;;5.07;3.77;;;;;;;16.53;54.06;100242.03;5090196;28;20531;-49
2021/05/26 10:58:07;;;;;;;5.47;3.47;;;;;;;16.19;54.74;100233.88;5092456;28;20456;-52
2021/05/26 11:00:36;;;;;;;6.80;3.80;;;;;;;16.28;55.53;100213.16;5090309;28;20945;-51
2021/05/26 11:03:40;;;;;;;6.67;4.10;;;;;;;16.37;56.80;100214.09;5093681;28;20481;-50
2021/05/26 11:06:37;;;;;;;5.97;3.70;;;;;;;16.78;55.33;100223.09;5086619;28;20555;-53
2021/05/26 11:09:07;;;;;;;10.87;4.73;;;;;;;17.20;56.63;100218.22;5090564;28;20463;-51
2021/05/26 11:11:52;;;;;;;10.43;6.33;;;;;;;17.66;55.39;100214.97;5092272;28;20449;-49
2021/05/26 11:14:34;;;;;;;12.53;8.30;;;;;;;17.78;55.74;100204.56;5091677;28;20481;-52
2021/05/26 11:17:24;;;;;;;12.53;7.80;;;;;;;17.63;54.68;100208.00;5093427;28;20489;-56
2021/05/26 11:20:04;;;;;;;17.50;10.43;;;;;;;17.22;56.02;100219.09;5090489;28;20474;-53
2021/05/26 11:22:31;;;;;;;35.33;22.10;;;;;;;17.45;58.16;100223.56;5091457;28;20869;-53
2021/05/26 11:24:58;;;;;;;17.20;11.80;;;;;;;17.37;55.87;100216.56;5093499;28;20783;-48
2021/05/26 11:27:30;;;;;;;11.00;7.20;;;;;;;16.64;56.12;100212.56;5094448;28;20762;-49